sensor_id;sensor_type;location;lat;lon;timestamp;pressure;altitude;pressure_sealevel;temperature
70050;BMP180;57391;51.306;22.680;2023-08-20T00:01:27;100030.60;;;22.50
70050;BMP180;57391;51.306;22.680;2023-08-20T00:03:55;100035.00;;;22.50
70050;BMP180;57391;51.306;22.680;2023-08-20T00:06:23;100039.60;;;22.50
70050;BMP180;57391;51.306;22.680;2023-08-20T00:08:50;100039.00;;;22.50
70050;BMP180;57391;51.306;22.680;2023-08-20T00:11:17;100036.00;;;22.44
70050;BMP180;57391;51.306;22.680;2023-08-20T00:13:44;100034.00;;;22.40
70050;BMP180;57391;51.306;22.680;2023-08-20T00:16:11;100037.00;;;22.40
70050;BMP180;57391;51.306;22.680;2023-08-20T00:18:39;100033.20;;;22.30
70050;BMP180;57391;51.306;22.680;2023-08-20T00:21:07;100029.60;;;22.30
70050;BMP180;57391;51.306;22.680;2023-08-20T00:23:36;100036.80;;;22.30
70050;BMP180;57391;51.306;22.680;2023-08-20T00:26:04;100039.80;;;22.20
70050;BMP180;57391;51.306;22.680;2023-08-20T00:28:31;100041.20;;;22.20
70050;BMP180;57391;51.306;22.680;2023-08-20T00:31:03;100043.60;;;22.20
70050;BMP180;57391;51.306;22.680;2023-08-20T00:33:31;100040.40;;;22.28
70050;BMP180;57391;51.306;22.680;2023-08-20T00:35:59;100038.60;;;22.20
70050;BMP180;57391;51.306;22.680;2023-08-20T00:38:26;100036.80;;;22.20
70050;BMP180;57391;51.306;22.680;2023-08-20T00:40:54;100041.20;;;22.20
70050;BMP180;57391;51.306;22.680;2023-08-20T00:43:21;100041.40;;;22.20
70050;BMP180;57391;51.306;22.680;2023-08-20T00:45:49;100037.20;;;22.20
70050;BMP180;57391;51.306;22.680;2023-08-20T00:48:16;100035.80;;;22.20
70050;BMP180;57391;51.306;22.680;2023-08-20T00:50:44;100031.00;;;22.20
70050;BMP180;57391;51.306;22.680;2023-08-20T00:53:12;100031.40;;;22.20
70050;BMP180;57391;51.306;22.680;2023-08-20T00:55:42;100029.80;;;22.18
70050;BMP180;57391;51.306;22.680;2023-08-20T00:58:10;100029.20;;;22.12
70050;BMP180;57391;51.306;22.680;2023-08-20T01:00:38;100032.00;;;22.10
70050;BMP180;57391;51.306;22.680;2023-08-20T01:03:05;100027.80;;;22.10
70050;BMP180;57391;51.306;22.680;2023-08-20T01:05:37;100029.20;;;22.10
70050;BMP180;57391;51.306;22.680;2023-08-20T01:08:40;100029.00;;;22.10
70050;BMP180;57391;51.306;22.680;2023-08-20T01:11:17;100024.60;;;22.10
70050;BMP180;57391;51.306;22.680;2023-08-20T01:13:45;100018.80;;;22.00
70050;BMP180;57391;51.306;22.680;2023-08-20T01:16:12;100021.80;;;22.00
70050;BMP180;57391;51.306;22.680;2023-08-20T01:18:39;100021.20;;;22.00
70050;BMP180;57391;51.306;22.680;2023-08-20T01:21:39;100021.40;;;22.00
70050;BMP180;57391;51.306;22.680;2023-08-20T01:27:43;100026.80;;;21.90
70050;BMP180;57391;51.306;22.680;2023-08-20T01:30:20;100020.40;;;21.90
70050;BMP180;57391;51.306;22.680;2023-08-20T01:32:53;100022.80;;;21.98
70050;BMP180;57391;51.306;22.680;2023-08-20T01:35:20;100016.00;;;22.00
70050;BMP180;57391;51.306;22.680;2023-08-20T01:37:47;100021.80;;;22.00
70050;BMP180;57391;51.306;22.680;2023-08-20T01:40:14;100023.60;;;21.98
70050;BMP180;57391;51.306;22.680;2023-08-20T01:42:41;100024.00;;;22.00
70050;BMP180;57391;51.306;22.680;2023-08-20T01:45:08;100025.00;;;21.90
70050;BMP180;57391;51.306;22.680;2023-08-20T01:47:35;100025.20;;;21.90
70050;BMP180;57391;51.306;22.680;2023-08-20T01:50:02;100023.40;;;21.90
70050;BMP180;57391;51.306;22.680;2023-08-20T01:52:29;100021.60;;;21.90
70050;BMP180;57391;51.306;22.680;2023-08-20T01:54:57;100024.60;;;21.90
70050;BMP180;57391;51.306;22.680;2023-08-20T01:57:24;100025.80;;;21.90
70050;BMP180;57391;51.306;22.680;2023-08-20T01:59:51;100027.80;;;21.92
70050;BMP180;57391;51.306;22.680;2023-08-20T02:02:19;100030.20;;;21.98
70050;BMP180;57391;51.306;22.680;2023-08-20T02:04:46;100031.20;;;21.90
70050;BMP180;57391;51.306;22.680;2023-08-20T02:07:13;100030.80;;;21.98
70050;BMP180;57391;51.306;22.680;2023-08-20T02:09:39;100023.80;;;22.00
70050;BMP180;57391;51.306;22.680;2023-08-20T02:12:07;100028.00;;;22.00
70050;BMP180;57391;51.306;22.680;2023-08-20T02:14:35;100024.20;;;22.00
70050;BMP180;57391;51.306;22.680;2023-08-20T02:17:02;100018.40;;;21.94
70050;BMP180;57391;51.306;22.680;2023-08-20T02:19:29;100020.60;;;21.96
70050;BMP180;57391;51.306;22.680;2023-08-20T02:21:56;100019.20;;;21.94
70050;BMP180;57391;51.306;22.680;2023-08-20T02:24:23;100019.20;;;21.96
70050;BMP180;57391;51.306;22.680;2023-08-20T02:26:50;100021.80;;;21.90
70050;BMP180;57391;51.306;22.680;2023-08-20T02:29:17;100023.80;;;21.90
70050;BMP180;57391;51.306;22.680;2023-08-20T02:31:44;100018.80;;;21.90
70050;BMP180;57391;51.306;22.680;2023-08-20T02:34:11;100015.60;;;21.82
70050;BMP180;57391;51.306;22.680;2023-08-20T02:36:38;100016.40;;;21.80
70050;BMP180;57391;51.306;22.680;2023-08-20T02:39:05;100018.80;;;21.80
70050;BMP180;57391;51.306;22.680;2023-08-20T02:41:36;100021.40;;;21.70
70050;BMP180;57391;51.306;22.680;2023-08-20T02:44:05;100021.00;;;21.70
70050;BMP180;57391;51.306;22.680;2023-08-20T02:46:32;100017.40;;;21.70
70050;BMP180;57391;51.306;22.680;2023-08-20T02:48:59;100014.00;;;21.70
70050;BMP180;57391;51.306;22.680;2023-08-20T02:51:28;100013.20;;;21.70
70050;BMP180;57391;51.306;22.680;2023-08-20T02:53:55;100012.80;;;21.70
70050;BMP180;57391;51.306;22.680;2023-08-20T02:56:22;100019.00;;;21.66
70050;BMP180;57391;51.306;22.680;2023-08-20T02:58:48;100017.20;;;21.60
70050;BMP180;57391;51.306;22.680;2023-08-20T03:01:22;100017.20;;;21.60
70050;BMP180;57391;51.306;22.680;2023-08-20T03:03:49;100016.20;;;21.60
70050;BMP180;57391;51.306;22.680;2023-08-20T03:06:16;100012.00;;;21.60
70050;BMP180;57391;51.306;22.680;2023-08-20T03:08:43;100009.00;;;21.52
70050;BMP180;57391;51.306;22.680;2023-08-20T03:11:10;100009.40;;;21.50
70050;BMP180;57391;51.306;22.680;2023-08-20T03:13:37;100005.40;;;21.50
70050;BMP180;57391;51.306;22.680;2023-08-20T03:16:04;100002.80;;;21.50
70050;BMP180;57391;51.306;22.680;2023-08-20T03:18:31;100006.60;;;21.50
70050;BMP180;57391;51.306;22.680;2023-08-20T03:20:58;99999.00;;;21.48
70050;BMP180;57391;51.306;22.680;2023-08-20T03:23:25;100001.00;;;21.40
70050;BMP180;57391;51.306;22.680;2023-08-20T03:25:51;100000.20;;;21.40
70050;BMP180;57391;51.306;22.680;2023-08-20T03:28:18;99998.40;;;21.40
70050;BMP180;57391;51.306;22.680;2023-08-20T03:30:45;99999.20;;;21.40
70050;BMP180;57391;51.306;22.680;2023-08-20T03:33:14;99999.60;;;21.40
70050;BMP180;57391;51.306;22.680;2023-08-20T03:35:42;100002.00;;;21.40
70050;BMP180;57391;51.306;22.680;2023-08-20T03:38:09;100002.80;;;21.40
70050;BMP180;57391;51.306;22.680;2023-08-20T03:40:35;100007.00;;;21.40
70050;BMP180;57391;51.306;22.680;2023-08-20T03:43:03;100007.00;;;21.40
70050;BMP180;57391;51.306;22.680;2023-08-20T03:45:30;100004.00;;;21.40
70050;BMP180;57391;51.306;22.680;2023-08-20T03:47:57;100008.60;;;21.40
70050;BMP180;57391;51.306;22.680;2023-08-20T03:50:24;100006.00;;;21.40
70050;BMP180;57391;51.306;22.680;2023-08-20T03:52:51;100007.80;;;21.34
70050;BMP180;57391;51.306;22.680;2023-08-20T03:55:18;100007.60;;;21.32
70050;BMP180;57391;51.306;22.680;2023-08-20T03:57:44;100006.60;;;21.40
70050;BMP180;57391;51.306;22.680;2023-08-20T04:00:12;100002.20;;;21.40
70050;BMP180;57391;51.306;22.680;2023-08-20T04:02:41;100005.40;;;21.40
70050;BMP180;57391;51.306;22.680;2023-08-20T04:05:09;100008.80;;;21.40
70050;BMP180;57391;51.306;22.680;2023-08-20T04:07:35;100013.80;;;21.40
70050;BMP180;57391;51.306;22.680;2023-08-20T04:10:02;100019.80;;;21.40
70050;BMP180;57391;51.306;22.680;2023-08-20T04:12:32;100020.80;;;21.40
70050;BMP180;57391;51.306;22.680;2023-08-20T04:14:59;100021.00;;;21.40
70050;BMP180;57391;51.306;22.680;2023-08-20T04:17:26;100028.20;;;21.40
70050;BMP180;57391;51.306;22.680;2023-08-20T04:19:53;100028.20;;;21.44
70050;BMP180;57391;51.306;22.680;2023-08-20T04:22:20;100034.40;;;21.50
70050;BMP180;57391;51.306;22.680;2023-08-20T04:24:47;100033.20;;;21.50
70050;BMP180;57391;51.306;22.680;2023-08-20T04:27:13;100037.20;;;21.60
70050;BMP180;57391;51.306;22.680;2023-08-20T04:29:41;100036.60;;;21.70
70050;BMP180;57391;51.306;22.680;2023-08-20T04:32:08;100029.00;;;21.96
70050;BMP180;57391;51.306;22.680;2023-08-20T04:34:36;100030.00;;;22.44
70050;BMP180;57391;51.306;22.680;2023-08-20T04:37:02;100037.00;;;23.16
70050;BMP180;57391;51.306;22.680;2023-08-20T04:39:29;100037.20;;;24.06
70050;BMP180;57391;51.306;22.680;2023-08-20T04:41:57;100041.80;;;24.92
70050;BMP180;57391;51.306;22.680;2023-08-20T04:44:27;100047.80;;;25.74
70050;BMP180;57391;51.306;22.680;2023-08-20T04:46:56;100050.00;;;26.48
70050;BMP180;57391;51.306;22.680;2023-08-20T04:49:23;100049.00;;;27.18
70050;BMP180;57391;51.306;22.680;2023-08-20T04:51:52;100052.80;;;27.84
70050;BMP180;57391;51.306;22.680;2023-08-20T04:54:19;100052.20;;;28.30
70050;BMP180;57391;51.306;22.680;2023-08-20T04:56:46;100062.20;;;28.50
70050;BMP180;57391;51.306;22.680;2023-08-20T04:59:13;100063.80;;;28.58
70050;BMP180;57391;51.306;22.680;2023-08-20T05:01:52;100061.00;;;28.50
70050;BMP180;57391;51.306;22.680;2023-08-20T05:04:25;100060.60;;;28.50
70050;BMP180;57391;51.306;22.680;2023-08-20T05:06:52;100064.00;;;28.50
70050;BMP180;57391;51.306;22.680;2023-08-20T05:09:21;100064.00;;;28.40
70050;BMP180;57391;51.306;22.680;2023-08-20T05:11:48;100068.00;;;28.30
70050;BMP180;57391;51.306;22.680;2023-08-20T05:14:15;100077.80;;;28.50
70050;BMP180;57391;51.306;22.680;2023-08-20T05:16:42;100075.00;;;28.84
70050;BMP180;57391;51.306;22.680;2023-08-20T05:19:09;100082.20;;;28.90
70050;BMP180;57391;51.306;22.680;2023-08-20T05:21:36;100092.40;;;28.70
70050;BMP180;57391;51.306;22.680;2023-08-20T05:24:04;100092.80;;;28.40
70050;BMP180;57391;51.306;22.680;2023-08-20T05:26:31;100097.20;;;28.20
70050;BMP180;57391;51.306;22.680;2023-08-20T05:28:58;100093.20;;;28.10
70050;BMP180;57391;51.306;22.680;2023-08-20T05:31:25;100099.40;;;28.00
70050;BMP180;57391;51.306;22.680;2023-08-20T05:33:52;100093.20;;;27.90
70050;BMP180;57391;51.306;22.680;2023-08-20T05:36:18;100098.00;;;27.80
70050;BMP180;57391;51.306;22.680;2023-08-20T05:38:45;100098.20;;;27.70
70050;BMP180;57391;51.306;22.680;2023-08-20T05:41:12;100096.40;;;27.60
70050;BMP180;57391;51.306;22.680;2023-08-20T05:43:39;100098.80;;;27.60
70050;BMP180;57391;51.306;22.680;2023-08-20T05:46:07;100100.60;;;27.50
70050;BMP180;57391;51.306;22.680;2023-08-20T05:48:33;100095.80;;;27.50
70050;BMP180;57391;51.306;22.680;2023-08-20T05:51:00;100099.80;;;27.40
70050;BMP180;57391;51.306;22.680;2023-08-20T05:53:27;100098.80;;;27.40
70050;BMP180;57391;51.306;22.680;2023-08-20T05:55:54;100102.60;;;27.40
70050;BMP180;57391;51.306;22.680;2023-08-20T05:58:21;100103.80;;;27.40
70050;BMP180;57391;51.306;22.680;2023-08-20T06:00:48;100108.00;;;27.48
70050;BMP180;57391;51.306;22.680;2023-08-20T06:03:15;100107.60;;;27.46
70050;BMP180;57391;51.306;22.680;2023-08-20T06:05:42;100107.40;;;27.50
70050;BMP180;57391;51.306;22.680;2023-08-20T06:08:08;100109.80;;;27.50
70050;BMP180;57391;51.306;22.680;2023-08-20T06:10:35;100112.20;;;27.48
70050;BMP180;57391;51.306;22.680;2023-08-20T06:13:02;100110.20;;;27.50
70050;BMP180;57391;51.306;22.680;2023-08-20T06:15:30;100114.40;;;27.50
70050;BMP180;57391;51.306;22.680;2023-08-20T06:17:57;100114.80;;;27.50
70050;BMP180;57391;51.306;22.680;2023-08-20T06:20:23;100113.00;;;27.50
70050;BMP180;57391;51.306;22.680;2023-08-20T06:22:50;100113.00;;;27.50
70050;BMP180;57391;51.306;22.680;2023-08-20T06:25:17;100117.80;;;27.60
70050;BMP180;57391;51.306;22.680;2023-08-20T06:27:44;100118.60;;;27.60
70050;BMP180;57391;51.306;22.680;2023-08-20T06:30:11;100118.40;;;27.70
70050;BMP180;57391;51.306;22.680;2023-08-20T06:32:38;100120.80;;;27.80
70050;BMP180;57391;51.306;22.680;2023-08-20T06:35:06;100122.40;;;27.80
70050;BMP180;57391;51.306;22.680;2023-08-20T06:37:33;100119.40;;;27.84
70050;BMP180;57391;51.306;22.680;2023-08-20T06:39:59;100122.60;;;27.92
70050;BMP180;57391;51.306;22.680;2023-08-20T06:42:26;100123.40;;;28.00
70050;BMP180;57391;51.306;22.680;2023-08-20T06:44:53;100124.40;;;28.10
70050;BMP180;57391;51.306;22.680;2023-08-20T06:47:20;100124.20;;;28.20
70050;BMP180;57391;51.306;22.680;2023-08-20T06:49:47;100124.20;;;28.24
70050;BMP180;57391;51.306;22.680;2023-08-20T06:52:13;100126.00;;;28.30
70050;BMP180;57391;51.306;22.680;2023-08-20T06:54:40;100123.60;;;28.30
70050;BMP180;57391;51.306;22.680;2023-08-20T06:57:07;100122.80;;;28.40
70050;BMP180;57391;51.306;22.680;2023-08-20T06:59:34;100120.00;;;28.40
70050;BMP180;57391;51.306;22.680;2023-08-20T07:02:01;100124.40;;;28.50
70050;BMP180;57391;51.306;22.680;2023-08-20T07:04:30;100124.40;;;28.52
70050;BMP180;57391;51.306;22.680;2023-08-20T07:06:56;100125.20;;;28.60
70050;BMP180;57391;51.306;22.680;2023-08-20T07:09:25;100122.00;;;28.70
70050;BMP180;57391;51.306;22.680;2023-08-20T07:11:51;100120.20;;;28.70
70050;BMP180;57391;51.306;22.680;2023-08-20T07:14:18;100123.20;;;28.70
70050;BMP180;57391;51.306;22.680;2023-08-20T07:16:45;100124.20;;;28.78
70050;BMP180;57391;51.306;22.680;2023-08-20T07:19:12;100122.80;;;28.80
70050;BMP180;57391;51.306;22.680;2023-08-20T07:21:39;100120.20;;;29.00
70050;BMP180;57391;51.306;22.680;2023-08-20T07:24:06;100121.40;;;29.10
70050;BMP180;57391;51.306;22.680;2023-08-20T07:26:33;100120.80;;;29.22
70050;BMP180;57391;51.306;22.680;2023-08-20T07:29:00;100122.40;;;29.36
70050;BMP180;57391;51.306;22.680;2023-08-20T07:31:30;100122.60;;;29.50
70050;BMP180;57391;51.306;22.680;2023-08-20T07:34:00;100124.80;;;29.60
70050;BMP180;57391;51.306;22.680;2023-08-20T07:36:27;100124.80;;;29.76
70050;BMP180;57391;51.306;22.680;2023-08-20T07:38:54;100127.40;;;29.90
70050;BMP180;57391;51.306;22.680;2023-08-20T07:41:22;100125.00;;;30.00
70050;BMP180;57391;51.306;22.680;2023-08-20T07:43:49;100131.60;;;30.10
70050;BMP180;57391;51.306;22.680;2023-08-20T07:46:16;100132.80;;;30.22
70050;BMP180;57391;51.306;22.680;2023-08-20T07:48:43;100134.40;;;30.40
70050;BMP180;57391;51.306;22.680;2023-08-20T07:51:10;100133.40;;;30.50
70050;BMP180;57391;51.306;22.680;2023-08-20T07:53:37;100133.40;;;30.60
70050;BMP180;57391;51.306;22.680;2023-08-20T07:56:04;100134.40;;;30.70
70050;BMP180;57391;51.306;22.680;2023-08-20T07:58:31;100134.00;;;30.80
70050;BMP180;57391;51.306;22.680;2023-08-20T08:00:58;100134.80;;;31.00
70050;BMP180;57391;51.306;22.680;2023-08-20T08:03:28;100137.00;;;31.12
70050;BMP180;57391;51.306;22.680;2023-08-20T08:05:56;100141.20;;;31.30
70050;BMP180;57391;51.306;22.680;2023-08-20T08:08:23;100142.00;;;31.40
70050;BMP180;57391;51.306;22.680;2023-08-20T08:10:50;100136.80;;;31.50
70050;BMP180;57391;51.306;22.680;2023-08-20T08:13:22;100139.20;;;31.70
70050;BMP180;57391;51.306;22.680;2023-08-20T08:15:50;100138.00;;;31.70
70050;BMP180;57391;51.306;22.680;2023-08-20T08:18:19;100133.60;;;31.84
70050;BMP180;57391;51.306;22.680;2023-08-20T08:20:46;100129.60;;;32.00
70050;BMP180;57391;51.306;22.680;2023-08-20T08:23:13;100133.20;;;32.16
70050;BMP180;57391;51.306;22.680;2023-08-20T08:25:40;100133.40;;;32.30
70050;BMP180;57391;51.306;22.680;2023-08-20T08:28:07;100129.80;;;32.50
70050;BMP180;57391;51.306;22.680;2023-08-20T08:30:34;100133.80;;;32.70
70050;BMP180;57391;51.306;22.680;2023-08-20T08:33:01;100129.80;;;32.84
70050;BMP180;57391;51.306;22.680;2023-08-20T08:35:30;100124.00;;;33.00
70050;BMP180;57391;51.306;22.680;2023-08-20T08:37:57;100128.80;;;33.10
70050;BMP180;57391;51.306;22.680;2023-08-20T08:40:28;100125.00;;;33.30
70050;BMP180;57391;51.306;22.680;2023-08-20T08:42:56;100122.40;;;33.50
70050;BMP180;57391;51.306;22.680;2023-08-20T08:45:23;100123.40;;;33.66
70050;BMP180;57391;51.306;22.680;2023-08-20T08:47:51;100125.00;;;33.82
70050;BMP180;57391;51.306;22.680;2023-08-20T08:50:20;100123.20;;;34.00
70050;BMP180;57391;51.306;22.680;2023-08-20T08:52:51;100123.00;;;34.00
70050;BMP180;57391;51.306;22.680;2023-08-20T08:55:19;100126.00;;;34.10
70050;BMP180;57391;51.306;22.680;2023-08-20T08:57:46;100133.80;;;34.12
70050;BMP180;57391;51.306;22.680;2023-08-20T09:00:14;100129.40;;;34.20
70050;BMP180;57391;51.306;22.680;2023-08-20T09:02:41;100127.60;;;34.20
70050;BMP180;57391;51.306;22.680;2023-08-20T09:05:08;100130.00;;;34.20
70050;BMP180;57391;51.306;22.680;2023-08-20T09:07:35;100131.40;;;34.20
70050;BMP180;57391;51.306;22.680;2023-08-20T09:10:02;100131.20;;;34.20
70050;BMP180;57391;51.306;22.680;2023-08-20T09:12:34;100128.60;;;34.30
70050;BMP180;57391;51.306;22.680;2023-08-20T09:15:01;100128.80;;;34.30
70050;BMP180;57391;51.306;22.680;2023-08-20T09:17:29;100127.80;;;34.40
70050;BMP180;57391;51.306;22.680;2023-08-20T09:19:56;100129.40;;;34.50
70050;BMP180;57391;51.306;22.680;2023-08-20T09:22:27;100126.40;;;34.60
70050;BMP180;57391;51.306;22.680;2023-08-20T09:24:57;100129.80;;;34.60
70050;BMP180;57391;51.306;22.680;2023-08-20T09:27:24;100131.00;;;34.70
70050;BMP180;57391;51.306;22.680;2023-08-20T09:29:54;100131.80;;;34.80
70050;BMP180;57391;51.306;22.680;2023-08-20T09:32:26;100130.80;;;34.80
70050;BMP180;57391;51.306;22.680;2023-08-20T09:34:55;100134.20;;;34.70
70050;BMP180;57391;51.306;22.680;2023-08-20T09:37:24;100132.80;;;34.60
70050;BMP180;57391;51.306;22.680;2023-08-20T09:39:51;100130.20;;;34.60
70050;BMP180;57391;51.306;22.680;2023-08-20T09:42:18;100130.80;;;34.50
70050;BMP180;57391;51.306;22.680;2023-08-20T09:44:46;100132.00;;;34.50
70050;BMP180;57391;51.306;22.680;2023-08-20T09:47:16;100127.40;;;34.40
70050;BMP180;57391;51.306;22.680;2023-08-20T09:49:49;100129.60;;;34.50
70050;BMP180;57391;51.306;22.680;2023-08-20T09:52:25;100128.40;;;34.40
70050;BMP180;57391;51.306;22.680;2023-08-20T09:55:09;100127.20;;;34.30
70050;BMP180;57391;51.306;22.680;2023-08-20T09:57:39;100122.60;;;34.20
70050;BMP180;57391;51.306;22.680;2023-08-20T10:00:09;100124.60;;;34.30
70050;BMP180;57391;51.306;22.680;2023-08-20T10:02:43;100120.60;;;34.46
70050;BMP180;57391;51.306;22.680;2023-08-20T10:05:12;100117.00;;;34.50
70050;BMP180;57391;51.306;22.680;2023-08-20T10:07:39;100120.60;;;34.50
70050;BMP180;57391;51.306;22.680;2023-08-20T10:10:09;100122.00;;;34.36
70050;BMP180;57391;51.306;22.680;2023-08-20T10:12:40;100118.80;;;34.30
70050;BMP180;57391;51.306;22.680;2023-08-20T10:15:09;100116.80;;;34.40
70050;BMP180;57391;51.306;22.680;2023-08-20T10:17:38;100110.80;;;34.50
70050;BMP180;57391;51.306;22.680;2023-08-20T10:20:06;100113.60;;;34.60
70050;BMP180;57391;51.306;22.680;2023-08-20T10:22:38;100111.40;;;34.60
70050;BMP180;57391;51.306;22.680;2023-08-20T10:25:07;100111.20;;;34.56
70050;BMP180;57391;51.306;22.680;2023-08-20T10:27:37;100113.00;;;34.40
70050;BMP180;57391;51.306;22.680;2023-08-20T10:30:10;100110.80;;;34.20
70050;BMP180;57391;51.306;22.680;2023-08-20T10:32:50;100106.60;;;34.00
70050;BMP180;57391;51.306;22.680;2023-08-20T10:35:27;100095.80;;;33.80
70050;BMP180;57391;51.306;22.680;2023-08-20T10:38:07;100093.40;;;33.90
70050;BMP180;57391;51.306;22.680;2023-08-20T10:40:55;100092.60;;;34.00
70050;BMP180;57391;51.306;22.680;2023-08-20T10:43:31;100091.60;;;33.90
70050;BMP180;57391;51.306;22.680;2023-08-20T10:46:24;100094.00;;;33.76
70050;BMP180;57391;51.306;22.680;2023-08-20T10:48:56;100088.40;;;33.56
70050;BMP180;57391;51.306;22.680;2023-08-20T10:51:27;100093.40;;;33.40
70050;BMP180;57391;51.306;22.680;2023-08-20T10:56:48;100083.00;;;33.20
70050;BMP180;57391;51.306;22.680;2023-08-20T10:59:26;100086.60;;;33.10
70050;BMP180;57391;51.306;22.680;2023-08-20T11:01:56;100084.40;;;32.90
70050;BMP180;57391;51.306;22.680;2023-08-20T11:04:31;100090.20;;;32.90
70050;BMP180;57391;51.306;22.680;2023-08-20T11:07:02;100084.80;;;33.04
70050;BMP180;57391;51.306;22.680;2023-08-20T11:09:31;100083.60;;;33.20
70050;BMP180;57391;51.306;22.680;2023-08-20T11:11:59;100076.80;;;33.34
70050;BMP180;57391;51.306;22.680;2023-08-20T11:14:26;100077.20;;;33.50
70050;BMP180;57391;51.306;22.680;2023-08-20T11:16:53;100073.60;;;33.70
70050;BMP180;57391;51.306;22.680;2023-08-20T11:19:24;100074.20;;;33.86
70050;BMP180;57391;51.306;22.680;2023-08-20T11:21:51;100071.20;;;34.00
70050;BMP180;57391;51.306;22.680;2023-08-20T11:24:18;100074.00;;;34.20
70050;BMP180;57391;51.306;22.680;2023-08-20T11:26:47;100070.20;;;34.30
70050;BMP180;57391;51.306;22.680;2023-08-20T11:29:16;100065.60;;;34.20
70050;BMP180;57391;51.306;22.680;2023-08-20T11:31:50;100058.80;;;34.10
70050;BMP180;57391;51.306;22.680;2023-08-20T11:34:20;100065.20;;;34.00
70050;BMP180;57391;51.306;22.680;2023-08-20T11:36:47;100067.60;;;33.90
70050;BMP180;57391;51.306;22.680;2023-08-20T11:39:15;100073.40;;;33.80
70050;BMP180;57391;51.306;22.680;2023-08-20T11:41:44;100067.80;;;33.70
70050;BMP180;57391;51.306;22.680;2023-08-20T11:44:19;100069.20;;;33.80
70050;BMP180;57391;51.306;22.680;2023-08-20T11:46:48;100072.80;;;33.80
70050;BMP180;57391;51.306;22.680;2023-08-20T11:49:15;100074.00;;;33.60
70050;BMP180;57391;51.306;22.680;2023-08-20T11:51:48;100069.20;;;33.30
70050;BMP180;57391;51.306;22.680;2023-08-20T11:54:17;100059.40;;;33.20
70050;BMP180;57391;51.306;22.680;2023-08-20T11:59:14;100051.40;;;33.28
70050;BMP180;57391;51.306;22.680;2023-08-20T12:01:42;100050.60;;;33.40
70050;BMP180;57391;51.306;22.680;2023-08-20T12:04:10;100043.20;;;33.56
70050;BMP180;57391;51.306;22.680;2023-08-20T12:06:38;100045.20;;;33.70
70050;BMP180;57391;51.306;22.680;2023-08-20T12:09:21;100047.80;;;33.80
70050;BMP180;57391;51.306;22.680;2023-08-20T12:11:50;100046.80;;;33.92
70050;BMP180;57391;51.306;22.680;2023-08-20T12:14:18;100032.80;;;34.00
70050;BMP180;57391;51.306;22.680;2023-08-20T12:16:46;100034.20;;;34.10
70050;BMP180;57391;51.306;22.680;2023-08-20T12:19:14;100035.20;;;34.20
70050;BMP180;57391;51.306;22.680;2023-08-20T12:21:41;100034.00;;;34.30
70050;BMP180;57391;51.306;22.680;2023-08-20T12:24:13;100038.60;;;34.30
70050;BMP180;57391;51.306;22.680;2023-08-20T12:26:40;100029.20;;;34.30
70050;BMP180;57391;51.306;22.680;2023-08-20T12:29:07;100036.60;;;34.30
70050;BMP180;57391;51.306;22.680;2023-08-20T12:31:36;100035.60;;;34.30
70050;BMP180;57391;51.306;22.680;2023-08-20T12:34:03;100031.80;;;34.30
70050;BMP180;57391;51.306;22.680;2023-08-20T12:36:30;100031.00;;;34.20
70050;BMP180;57391;51.306;22.680;2023-08-20T12:38:57;100035.20;;;34.20
70050;BMP180;57391;51.306;22.680;2023-08-20T12:41:24;100031.00;;;34.14
70050;BMP180;57391;51.306;22.680;2023-08-20T12:43:51;100029.40;;;34.10
70050;BMP180;57391;51.306;22.680;2023-08-20T12:46:18;100036.00;;;34.10
70050;BMP180;57391;51.306;22.680;2023-08-20T12:48:45;100033.80;;;34.10
70050;BMP180;57391;51.306;22.680;2023-08-20T12:51:12;100034.60;;;34.16
70050;BMP180;57391;51.306;22.680;2023-08-20T12:53:40;100041.00;;;34.20
70050;BMP180;57391;51.306;22.680;2023-08-20T12:56:07;100038.00;;;34.20
70050;BMP180;57391;51.306;22.680;2023-08-20T12:58:35;100033.00;;;34.20
70050;BMP180;57391;51.306;22.680;2023-08-20T13:01:02;100033.00;;;34.20
70050;BMP180;57391;51.306;22.680;2023-08-20T13:03:29;100031.80;;;34.20
70050;BMP180;57391;51.306;22.680;2023-08-20T13:05:56;100024.60;;;34.20
70050;BMP180;57391;51.306;22.680;2023-08-20T13:08:24;100024.00;;;34.20
70050;BMP180;57391;51.306;22.680;2023-08-20T13:10:56;100024.60;;;34.20
70050;BMP180;57391;51.306;22.680;2023-08-20T13:13:24;100020.60;;;34.20
70050;BMP180;57391;51.306;22.680;2023-08-20T13:15:53;100020.00;;;34.00
70050;BMP180;57391;51.306;22.680;2023-08-20T13:18:21;100022.60;;;33.90
70050;BMP180;57391;51.306;22.680;2023-08-20T13:20:54;100023.80;;;33.72
70050;BMP180;57391;51.306;22.680;2023-08-20T13:23:22;100018.80;;;33.60
70050;BMP180;57391;51.306;22.680;2023-08-20T13:25:48;100019.80;;;33.40
70050;BMP180;57391;51.306;22.680;2023-08-20T13:28:15;100018.20;;;33.20
70050;BMP180;57391;51.306;22.680;2023-08-20T13:30:42;100014.00;;;33.10
70050;BMP180;57391;51.306;22.680;2023-08-20T13:33:09;100013.80;;;33.00
70050;BMP180;57391;51.306;22.680;2023-08-20T13:35:36;100014.40;;;32.80
70050;BMP180;57391;51.306;22.680;2023-08-20T13:38:03;100015.00;;;32.70
70050;BMP180;57391;51.306;22.680;2023-08-20T13:40:31;100013.20;;;32.60
70050;BMP180;57391;51.306;22.680;2023-08-20T13:42:58;100005.20;;;32.50
70050;BMP180;57391;51.306;22.680;2023-08-20T13:45:25;100010.40;;;32.50
70050;BMP180;57391;51.306;22.680;2023-08-20T13:47:52;100010.20;;;32.50
70050;BMP180;57391;51.306;22.680;2023-08-20T13:50:19;100015.40;;;32.40
70050;BMP180;57391;51.306;22.680;2023-08-20T13:52:46;100011.40;;;32.38
70050;BMP180;57391;51.306;22.680;2023-08-20T13:55:13;100011.20;;;32.40
70050;BMP180;57391;51.306;22.680;2023-08-20T13:57:40;100007.40;;;32.50
70050;BMP180;57391;51.306;22.680;2023-08-20T14:00:07;99998.80;;;32.50